sensor_id;sensor_type;location;lat;lon;timestamp;temperature;humidity
67641;SHT31;54434;50.096;20.082;2023-04-28T00:02:19;2.69;77.91
67641;SHT31;54434;50.096;20.082;2023-04-28T00:04:55;2.70;78.04
67641;SHT31;54434;50.096;20.082;2023-04-28T00:07:32;2.74;77.94
67641;SHT31;54434;50.096;20.082;2023-04-28T00:10:11;2.78;77.95
67641;SHT31;54434;50.096;20.082;2023-04-28T00:12:48;2.81;77.92
67641;SHT31;54434;50.096;20.082;2023-04-28T00:15:25;2.86;78.04
67641;SHT31;54434;50.096;20.082;2023-04-28T00:18:02;2.90;77.96
67641;SHT31;54434;50.096;20.082;2023-04-28T00:20:39;2.93;78.02
67641;SHT31;54434;50.096;20.082;2023-04-28T00:23:15;2.97;78.02
67641;SHT31;54434;50.096;20.082;2023-04-28T00:25:53;2.99;78.00
67641;SHT31;54434;50.096;20.082;2023-04-28T00:28:29;3.01;77.95
67641;SHT31;54434;50.096;20.082;2023-04-28T00:31:11;3.04;77.86
67641;SHT31;54434;50.096;20.082;2023-04-28T00:33:49;3.10;77.83
67641;SHT31;54434;50.096;20.082;2023-04-28T00:36:25;3.15;77.84
67641;SHT31;54434;50.096;20.082;2023-04-28T00:39:03;3.19;77.70
67641;SHT31;54434;50.096;20.082;2023-04-28T00:41:39;3.22;77.80
67641;SHT31;54434;50.096;20.082;2023-04-28T00:44:16;3.24;77.93
67641;SHT31;54434;50.096;20.082;2023-04-28T00:46:53;3.28;78.09
67641;SHT31;54434;50.096;20.082;2023-04-28T00:49:30;3.29;78.03
67641;SHT31;54434;50.096;20.082;2023-04-28T00:52:07;3.32;78.00
67641;SHT31;54434;50.096;20.082;2023-04-28T00:54:44;3.35;77.84
67641;SHT31;54434;50.096;20.082;2023-04-28T00:57:21;3.36;77.92
67641;SHT31;54434;50.096;20.082;2023-04-28T00:59:57;3.35;77.96
67641;SHT31;54434;50.096;20.082;2023-04-28T01:02:35;3.33;77.95
67641;SHT31;54434;50.096;20.082;2023-04-28T01:05:12;3.28;77.85
67641;SHT31;54434;50.096;20.082;2023-04-28T01:07:50;3.30;77.66
67641;SHT31;54434;50.096;20.082;2023-04-28T01:10:27;3.31;77.47
67641;SHT31;54434;50.096;20.082;2023-04-28T01:13:08;3.35;77.60
67641;SHT31;54434;50.096;20.082;2023-04-28T01:15:45;3.36;77.58
67641;SHT31;54434;50.096;20.082;2023-04-28T01:18:22;3.35;77.60
67641;SHT31;54434;50.096;20.082;2023-04-28T01:20:59;3.37;77.60
67641;SHT31;54434;50.096;20.082;2023-04-28T01:23:36;3.36;77.66
67641;SHT31;54434;50.096;20.082;2023-04-28T01:26:13;3.37;77.66
67641;SHT31;54434;50.096;20.082;2023-04-28T01:28:50;3.36;77.77
67641;SHT31;54434;50.096;20.082;2023-04-28T01:31:26;3.37;77.67
67641;SHT31;54434;50.096;20.082;2023-04-28T01:34:04;3.38;77.61
67641;SHT31;54434;50.096;20.082;2023-04-28T01:36:40;3.38;77.67
67641;SHT31;54434;50.096;20.082;2023-04-28T01:39:16;3.37;77.78
67641;SHT31;54434;50.096;20.082;2023-04-28T01:41:53;3.36;77.88
67641;SHT31;54434;50.096;20.082;2023-04-28T01:44:29;3.38;77.77
67641;SHT31;54434;50.096;20.082;2023-04-28T01:47:06;3.39;78.05
67641;SHT31;54434;50.096;20.082;2023-04-28T01:49:43;3.43;77.90
67641;SHT31;54434;50.096;20.082;2023-04-28T01:52:20;3.46;77.83
67641;SHT31;54434;50.096;20.082;2023-04-28T01:54:58;3.49;77.98
67641;SHT31;54434;50.096;20.082;2023-04-28T01:57:35;3.51;77.75
67641;SHT31;54434;50.096;20.082;2023-04-28T02:00:13;3.54;77.70
67641;SHT31;54434;50.096;20.082;2023-04-28T02:02:54;3.58;77.70
67641;SHT31;54434;50.096;20.082;2023-04-28T02:05:31;3.59;77.67
67641;SHT31;54434;50.096;20.082;2023-04-28T02:08:07;3.62;77.95
67641;SHT31;54434;50.096;20.082;2023-04-28T02:10:44;3.62;78.13
67641;SHT31;54434;50.096;20.082;2023-04-28T02:13:20;3.62;78.21
67641;SHT31;54434;50.096;20.082;2023-04-28T02:15:58;3.64;78.21
67641;SHT31;54434;50.096;20.082;2023-04-28T02:18:35;3.65;78.07
67641;SHT31;54434;50.096;20.082;2023-04-28T02:21:12;3.64;78.00
67641;SHT31;54434;50.096;20.082;2023-04-28T02:23:49;3.66;77.96
67641;SHT31;54434;50.096;20.082;2023-04-28T02:26:27;3.68;77.94
67641;SHT31;54434;50.096;20.082;2023-04-28T02:29:05;3.69;78.08
67641;SHT31;54434;50.096;20.082;2023-04-28T02:31:41;3.70;77.94
67641;SHT31;54434;50.096;20.082;2023-04-28T02:34:17;3.70;77.95
67641;SHT31;54434;50.096;20.082;2023-04-28T02:36:54;3.70;78.13
67641;SHT31;54434;50.096;20.082;2023-04-28T02:39:31;3.70;78.15
67641;SHT31;54434;50.096;20.082;2023-04-28T02:42:07;3.71;78.11
67641;SHT31;54434;50.096;20.082;2023-04-28T02:44:43;3.71;78.06
67641;SHT31;54434;50.096;20.082;2023-04-28T02:47:20;3.70;78.14
67641;SHT31;54434;50.096;20.082;2023-04-28T02:49:56;3.65;78.30
67641;SHT31;54434;50.096;20.082;2023-04-28T02:52:32;3.64;78.30
67641;SHT31;54434;50.096;20.082;2023-04-28T02:55:09;3.62;78.23
67641;SHT31;54434;50.096;20.082;2023-04-28T02:57:54;3.60;78.06
67641;SHT31;54434;50.096;20.082;2023-04-28T03:00:30;3.58;78.16
67641;SHT31;54434;50.096;20.082;2023-04-28T03:03:07;3.57;78.08
67641;SHT31;54434;50.096;20.082;2023-04-28T03:05:44;3.55;78.13
67641;SHT31;54434;50.096;20.082;2023-04-28T03:08:20;3.53;78.17
67641;SHT31;54434;50.096;20.082;2023-04-28T03:10:57;3.48;78.23
67641;SHT31;54434;50.096;20.082;2023-04-28T03:13:34;3.47;78.33
67641;SHT31;54434;50.096;20.082;2023-04-28T03:16:10;3.45;78.28
67641;SHT31;54434;50.096;20.082;2023-04-28T03:18:47;3.45;78.20
67641;SHT31;54434;50.096;20.082;2023-04-28T03:21:23;3.42;78.18
67641;SHT31;54434;50.096;20.082;2023-04-28T03:23:59;3.38;78.19
67641;SHT31;54434;50.096;20.082;2023-04-28T03:26:36;3.36;78.20
67641;SHT31;54434;50.096;20.082;2023-04-28T03:29:13;3.31;78.19
67641;SHT31;54434;50.096;20.082;2023-04-28T03:31:49;3.28;78.20
67641;SHT31;54434;50.096;20.082;2023-04-28T03:34:26;3.26;78.24
67641;SHT31;54434;50.096;20.082;2023-04-28T03:37:02;3.24;78.29
67641;SHT31;54434;50.096;20.082;2023-04-28T03:39:39;3.25;78.24
67641;SHT31;54434;50.096;20.082;2023-04-28T03:42:15;3.26;78.21
67641;SHT31;54434;50.096;20.082;2023-04-28T03:45:08;3.26;78.34
67641;SHT31;54434;50.096;20.082;2023-04-28T03:47:45;3.26;78.40
67641;SHT31;54434;50.096;20.082;2023-04-28T03:50:21;3.28;78.48
67641;SHT31;54434;50.096;20.082;2023-04-28T03:52:58;3.29;78.42
67641;SHT31;54434;50.096;20.082;2023-04-28T03:55:36;3.30;78.45
67641;SHT31;54434;50.096;20.082;2023-04-28T03:58:12;3.32;78.54
67641;SHT31;54434;50.096;20.082;2023-04-28T04:00:49;3.34;78.47
67641;SHT31;54434;50.096;20.082;2023-04-28T04:03:26;3.37;78.37
67641;SHT31;54434;50.096;20.082;2023-04-28T04:06:03;3.39;78.33
67641;SHT31;54434;50.096;20.082;2023-04-28T04:08:40;3.43;78.40
67641;SHT31;54434;50.096;20.082;2023-04-28T04:11:19;3.48;78.45
67641;SHT31;54434;50.096;20.082;2023-04-28T04:13:55;3.51;78.50
67641;SHT31;54434;50.096;20.082;2023-04-28T04:16:32;3.53;78.58
67641;SHT31;54434;50.096;20.082;2023-04-28T04:19:09;3.56;78.47
67641;SHT31;54434;50.096;20.082;2023-04-28T04:21:47;3.66;78.51
67641;SHT31;54434;50.096;20.082;2023-04-28T04:24:23;3.82;78.52
67641;SHT31;54434;50.096;20.082;2023-04-28T04:27:00;3.94;78.38
67641;SHT31;54434;50.096;20.082;2023-04-28T04:29:40;4.07;78.12
67641;SHT31;54434;50.096;20.082;2023-04-28T04:32:17;4.20;77.74
67641;SHT31;54434;50.096;20.082;2023-04-28T04:34:54;4.30;77.62
67641;SHT31;54434;50.096;20.082;2023-04-28T04:37:30;4.41;77.43
67641;SHT31;54434;50.096;20.082;2023-04-28T04:40:08;4.62;77.14
67641;SHT31;54434;50.096;20.082;2023-04-28T04:42:50;5.09;76.45
67641;SHT31;54434;50.096;20.082;2023-04-28T04:45:31;5.45;75.80
67641;SHT31;54434;50.096;20.082;2023-04-28T04:48:08;5.85;75.10
67641;SHT31;54434;50.096;20.082;2023-04-28T04:50:44;6.26;74.15
67641;SHT31;54434;50.096;20.082;2023-04-28T04:53:20;6.57;73.83
67641;SHT31;54434;50.096;20.082;2023-04-28T04:55:57;6.97;73.13
67641;SHT31;54434;50.096;20.082;2023-04-28T04:58:35;7.58;71.52
67641;SHT31;54434;50.096;20.082;2023-04-28T05:02:01;8.42;69.30
67641;SHT31;54434;50.096;20.082;2023-04-28T05:04:39;9.09;67.82
67641;SHT31;54434;50.096;20.082;2023-04-28T05:07:16;9.69;66.50
67641;SHT31;54434;50.096;20.082;2023-04-28T05:09:52;10.22;64.12
67641;SHT31;54434;50.096;20.082;2023-04-28T05:12:29;10.77;62.61
67641;SHT31;54434;50.096;20.082;2023-04-28T05:15:06;11.43;61.08
67641;SHT31;54434;50.096;20.082;2023-04-28T05:17:47;11.98;59.18
67641;SHT31;54434;50.096;20.082;2023-04-28T05:20:21;12.50;58.35
67641;SHT31;54434;50.096;20.082;2023-04-28T05:22:59;12.99;57.19
67641;SHT31;54434;50.096;20.082;2023-04-28T05:25:35;13.44;55.58
67641;SHT31;54434;50.096;20.082;2023-04-28T05:28:13;13.72;54.45
67641;SHT31;54434;50.096;20.082;2023-04-28T05:30:52;14.06;53.90
67641;SHT31;54434;50.096;20.082;2023-04-28T05:33:29;14.40;53.63
67641;SHT31;54434;50.096;20.082;2023-04-28T05:36:06;14.83;52.64
67641;SHT31;54434;50.096;20.082;2023-04-28T05:38:43;15.23;51.31
67641;SHT31;54434;50.096;20.082;2023-04-28T05:41:20;15.52;50.58
67641;SHT31;54434;50.096;20.082;2023-04-28T05:43:56;15.84;49.33
67641;SHT31;54434;50.096;20.082;2023-04-28T05:46:33;16.10;48.08
67641;SHT31;54434;50.096;20.082;2023-04-28T05:49:10;16.41;47.65
67641;SHT31;54434;50.096;20.082;2023-04-28T05:51:46;16.39;46.32
67641;SHT31;54434;50.096;20.082;2023-04-28T05:54:23;16.41;46.63
67641;SHT31;54434;50.096;20.082;2023-04-28T05:57:00;16.51;45.71
67641;SHT31;54434;50.096;20.082;2023-04-28T05:59:36;16.69;45.88
67641;SHT31;54434;50.096;20.082;2023-04-28T06:02:13;17.01;45.58
67641;SHT31;54434;50.096;20.082;2023-04-28T06:04:53;17.23;44.83
67641;SHT31;54434;50.096;20.082;2023-04-28T06:07:30;17.46;44.42
67641;SHT31;54434;50.096;20.082;2023-04-28T06:10:09;17.74;43.53
67641;SHT31;54434;50.096;20.082;2023-04-28T06:12:47;17.78;42.97
67641;SHT31;54434;50.096;20.082;2023-04-28T06:15:24;17.90;42.75
67641;SHT31;54434;50.096;20.082;2023-04-28T06:18:00;17.99;41.41
67641;SHT31;54434;50.096;20.082;2023-04-28T06:20:38;17.91;41.16
67641;SHT31;54434;50.096;20.082;2023-04-28T06:23:14;18.05;41.56
67641;SHT31;54434;50.096;20.082;2023-04-28T06:25:52;18.34;41.17
67641;SHT31;54434;50.096;20.082;2023-04-28T06:28:29;18.50;40.23
67641;SHT31;54434;50.096;20.082;2023-04-28T06:31:07;18.65;39.47
67641;SHT31;54434;50.096;20.082;2023-04-28T06:33:43;19.07;38.11
67641;SHT31;54434;50.096;20.082;2023-04-28T06:36:20;19.34;39.09
67641;SHT31;54434;50.096;20.082;2023-04-28T06:38:57;19.55;38.76
67641;SHT31;54434;50.096;20.082;2023-04-28T06:41:35;19.76;38.61
67641;SHT31;54434;50.096;20.082;2023-04-28T06:44:13;20.08;36.68
67641;SHT31;54434;50.096;20.082;2023-04-28T06:46:50;20.37;34.58
67641;SHT31;54434;50.096;20.082;2023-04-28T06:49:27;20.58;34.44
67641;SHT31;54434;50.096;20.082;2023-04-28T06:52:04;20.73;33.90
67641;SHT31;54434;50.096;20.082;2023-04-28T06:54:41;20.86;33.32
67641;SHT31;54434;50.096;20.082;2023-04-28T06:57:17;21.07;33.59
67641;SHT31;54434;50.096;20.082;2023-04-28T06:59:54;21.07;32.40
67641;SHT31;54434;50.096;20.082;2023-04-28T07:02:31;20.88;31.80
67641;SHT31;54434;50.096;20.082;2023-04-28T07:05:09;20.87;32.73
67641;SHT31;54434;50.096;20.082;2023-04-28T07:07:47;21.06;32.99
67641;SHT31;54434;50.096;20.082;2023-04-28T07:10:24;21.16;31.75
67641;SHT31;54434;50.096;20.082;2023-04-28T07:13:01;21.09;32.59
67641;SHT31;54434;50.096;20.082;2023-04-28T07:15:38;20.98;31.86
67641;SHT31;54434;50.096;20.082;2023-04-28T07:18:15;20.88;32.11
67641;SHT31;54434;50.096;20.082;2023-04-28T07:20:52;20.81;31.39
67641;SHT31;54434;50.096;20.082;2023-04-28T07:23:29;20.60;31.89
67641;SHT31;54434;50.096;20.082;2023-04-28T07:26:06;20.49;31.94
67641;SHT31;54434;50.096;20.082;2023-04-28T07:28:45;20.46;32.30
67641;SHT31;54434;50.096;20.082;2023-04-28T07:31:23;20.41;32.34
67641;SHT31;54434;50.096;20.082;2023-04-28T07:34:00;20.39;31.51
67641;SHT31;54434;50.096;20.082;2023-04-28T07:36:37;19.99;31.77
67641;SHT31;54434;50.096;20.082;2023-04-28T07:39:14;19.85;33.19
67641;SHT31;54434;50.096;20.082;2023-04-28T07:41:52;19.94;32.88
67641;SHT31;54434;50.096;20.082;2023-04-28T07:44:30;19.88;32.21
67641;SHT31;54434;50.096;20.082;2023-04-28T07:47:07;19.71;33.25
67641;SHT31;54434;50.096;20.082;2023-04-28T07:49:43;19.58;32.23
67641;SHT31;54434;50.096;20.082;2023-04-28T07:52:20;19.44;31.76
67641;SHT31;54434;50.096;20.082;2023-04-28T07:54:57;19.58;32.05
67641;SHT31;54434;50.096;20.082;2023-04-28T07:57:35;19.66;32.43
67641;SHT31;54434;50.096;20.082;2023-04-28T08:00:14;19.71;32.87
67641;SHT31;54434;50.096;20.082;2023-04-28T08:02:52;19.69;31.85
67641;SHT31;54434;50.096;20.082;2023-04-28T08:05:29;19.61;30.07
67641;SHT31;54434;50.096;20.082;2023-04-28T08:08:06;19.51;30.16
67641;SHT31;54434;50.096;20.082;2023-04-28T08:10:43;19.29;29.06
67641;SHT31;54434;50.096;20.082;2023-04-28T08:13:21;19.13;30.07
67641;SHT31;54434;50.096;20.082;2023-04-28T08:15:59;19.16;30.31
67641;SHT31;54434;50.096;20.082;2023-04-28T08:18:36;19.28;30.60
67641;SHT31;54434;50.096;20.082;2023-04-28T08:21:14;19.37;30.55
67641;SHT31;54434;50.096;20.082;2023-04-28T08:23:50;19.38;29.87
67641;SHT31;54434;50.096;20.082;2023-04-28T08:26:27;19.08;29.17
67641;SHT31;54434;50.096;20.082;2023-04-28T08:29:03;18.63;29.56
67641;SHT31;54434;50.096;20.082;2023-04-28T08:31:40;18.40;30.04
67641;SHT31;54434;50.096;20.082;2023-04-28T08:34:17;18.14;29.36
67641;SHT31;54434;50.096;20.082;2023-04-28T08:36:54;17.98;29.91
67641;SHT31;54434;50.096;20.082;2023-04-28T08:39:30;17.98;30.03
67641;SHT31;54434;50.096;20.082;2023-04-28T08:42:07;17.81;30.12
67641;SHT31;54434;50.096;20.082;2023-04-28T08:44:44;17.72;30.54
67641;SHT31;54434;50.096;20.082;2023-04-28T08:47:24;17.63;30.36
67641;SHT31;54434;50.096;20.082;2023-04-28T08:50:07;17.56;30.24
67641;SHT31;54434;50.096;20.082;2023-04-28T08:52:45;17.39;30.10
67641;SHT31;54434;50.096;20.082;2023-04-28T08:55:24;17.37;30.56
67641;SHT31;54434;50.096;20.082;2023-04-28T08:58:02;17.30;30.74
67641;SHT31;54434;50.096;20.082;2023-04-28T09:00:41;17.30;30.46
67641;SHT31;54434;50.096;20.082;2023-04-28T09:03:17;17.22;29.83
67641;SHT31;54434;50.096;20.082;2023-04-28T09:05:55;17.10;30.10
67641;SHT31;54434;50.096;20.082;2023-04-28T09:08:33;17.07;30.26
67641;SHT31;54434;50.096;20.082;2023-04-28T09:11:11;16.97;30.76
67641;SHT31;54434;50.096;20.082;2023-04-28T09:13:49;16.94;29.82
67641;SHT31;54434;50.096;20.082;2023-04-28T09:16:44;16.69;29.88
67641;SHT31;54434;50.096;20.082;2023-04-28T09:19:23;16.61;31.91
67641;SHT31;54434;50.096;20.082;2023-04-28T09:22:07;16.73;30.94
67641;SHT31;54434;50.096;20.082;2023-04-28T09:24:46;16.87;32.83
67641;SHT31;54434;50.096;20.082;2023-04-28T09:27:28;17.00;32.64
67641;SHT31;54434;50.096;20.082;2023-04-28T09:30:05;17.08;32.63
67641;SHT31;54434;50.096;20.082;2023-04-28T09:32:43;17.08;31.72
67641;SHT31;54434;50.096;20.082;2023-04-28T09:35:43;17.22;32.42
67641;SHT31;54434;50.096;20.082;2023-04-28T09:38:20;17.27;31.50
67641;SHT31;54434;50.096;20.082;2023-04-28T09:40:58;17.11;30.46
67641;SHT31;54434;50.096;20.082;2023-04-28T09:43:36;16.92;30.63
67641;SHT31;54434;50.096;20.082;2023-04-28T09:46:12;16.83;30.60
67641;SHT31;54434;50.096;20.082;2023-04-28T09:49:05;16.69;30.05
67641;SHT31;54434;50.096;20.082;2023-04-28T09:51:43;16.50;30.33
67641;SHT31;54434;50.096;20.082;2023-04-28T09:54:22;16.37;31.30
67641;SHT31;54434;50.096;20.082;2023-04-28T09:57:03;16.42;32.50
67641;SHT31;54434;50.096;20.082;2023-04-28T09:59:43;16.55;33.51
67641;SHT31;54434;50.096;20.082;2023-04-28T10:02:24;16.76;33.78
67641;SHT31;54434;50.096;20.082;2023-04-28T10:05:15;16.93;32.76
67641;SHT31;54434;50.096;20.082;2023-04-28T10:07:56;16.83;31.67
67641;SHT31;54434;50.096;20.082;2023-04-28T10:10:33;16.72;31.95
67641;SHT31;54434;50.096;20.082;2023-04-28T10:13:11;16.86;33.53
67641;SHT31;54434;50.096;20.082;2023-04-28T10:15:49;17.01;33.40
67641;SHT31;54434;50.096;20.082;2023-04-28T10:18:29;17.04;33.43
67641;SHT31;54434;50.096;20.082;2023-04-28T10:21:08;17.05;33.73
67641;SHT31;54434;50.096;20.082;2023-04-28T10:27:09;17.14;33.37
67641;SHT31;54434;50.096;20.082;2023-04-28T10:29:46;17.12;33.49
67641;SHT31;54434;50.096;20.082;2023-04-28T10:32:23;17.16;34.70
67641;SHT31;54434;50.096;20.082;2023-04-28T10:38:18;17.25;32.78
67641;SHT31;54434;50.096;20.082;2023-04-28T10:40:55;17.18;32.55
67641;SHT31;54434;50.096;20.082;2023-04-28T10:43:37;17.07;32.15
67641;SHT31;54434;50.096;20.082;2023-04-28T10:46:14;17.09;32.99
67641;SHT31;54434;50.096;20.082;2023-04-28T10:48:59;16.94;32.33
67641;SHT31;54434;50.096;20.082;2023-04-28T10:51:36;16.98;33.95
67641;SHT31;54434;50.096;20.082;2023-04-28T10:54:21;17.02;34.10
67641;SHT31;54434;50.096;20.082;2023-04-28T10:57:19;17.09;35.23
67641;SHT31;54434;50.096;20.082;2023-04-28T10:59:58;17.10;34.50
67641;SHT31;54434;50.096;20.082;2023-04-28T11:03:03;17.02;32.04
67641;SHT31;54434;50.096;20.082;2023-04-28T11:05:40;16.91;33.16
67641;SHT31;54434;50.096;20.082;2023-04-28T11:08:58;16.79;32.63
67641;SHT31;54434;50.096;20.082;2023-04-28T11:12:08;16.64;31.41
67641;SHT31;54434;50.096;20.082;2023-04-28T11:14:45;16.54;32.84
67641;SHT31;54434;50.096;20.082;2023-04-28T11:17:27;16.49;31.26
67641;SHT31;54434;50.096;20.082;2023-04-28T11:20:13;16.33;31.44
67641;SHT31;54434;50.096;20.082;2023-04-28T11:22:57;16.36;32.32
67641;SHT31;54434;50.096;20.082;2023-04-28T11:25:55;16.30;31.30
67641;SHT31;54434;50.096;20.082;2023-04-28T11:28:32;16.29;32.39
67641;SHT31;54434;50.096;20.082;2023-04-28T11:31:13;16.27;31.74
67641;SHT31;54434;50.096;20.082;2023-04-28T11:33:57;16.35;33.18
67641;SHT31;54434;50.096;20.082;2023-04-28T11:36:38;16.52;32.86
67641;SHT31;54434;50.096;20.082;2023-04-28T11:39:15;16.64;33.24
67641;SHT31;54434;50.096;20.082;2023-04-28T11:42:08;16.77;32.37
67641;SHT31;54434;50.096;20.082;2023-04-28T11:44:51;16.80;32.22
67641;SHT31;54434;50.096;20.082;2023-04-28T11:47:32;16.78;31.56
67641;SHT31;54434;50.096;20.082;2023-04-28T11:50:10;16.79;31.27
67641;SHT31;54434;50.096;20.082;2023-04-28T11:52:50;16.77;31.04
67641;SHT31;54434;50.096;20.082;2023-04-28T11:55:27;16.73;30.93
67641;SHT31;54434;50.096;20.082;2023-04-28T11:58:20;16.77;31.73
67641;SHT31;54434;50.096;20.082;2023-04-28T12:01:11;16.76;31.71
67641;SHT31;54434;50.096;20.082;2023-04-28T12:03:49;16.76;32.23
67641;SHT31;54434;50.096;20.082;2023-04-28T12:06:26;16.88;32.27
67641;SHT31;54434;50.096;20.082;2023-04-28T12:09:15;16.98;33.74
67641;SHT31;54434;50.096;20.082;2023-04-28T12:12:01;17.10;32.49
67641;SHT31;54434;50.096;20.082;2023-04-28T12:14:56;17.13;31.83
67641;SHT31;54434;50.096;20.082;2023-04-28T12:17:36;17.19;32.46
67641;SHT31;54434;50.096;20.082;2023-04-28T12:20:33;17.21;32.37
67641;SHT31;54434;50.096;20.082;2023-04-28T12:23:13;17.17;32.84
67641;SHT31;54434;50.096;20.082;2023-04-28T12:26:03;17.25;33.37
67641;SHT31;54434;50.096;20.082;2023-04-28T12:28:41;17.36;32.15
67641;SHT31;54434;50.096;20.082;2023-04-28T12:31:18;17.34;32.22
67641;SHT31;54434;50.096;20.082;2023-04-28T12:33:55;17.34;31.86
67641;SHT31;54434;50.096;20.082;2023-04-28T12:36:32;17.31;32.29
67641;SHT31;54434;50.096;20.082;2023-04-28T12:39:13;17.29;33.12
67641;SHT31;54434;50.096;20.082;2023-04-28T12:41:50;17.33;33.44
67641;SHT31;54434;50.096;20.082;2023-04-28T12:44:28;17.37;33.39
67641;SHT31;54434;50.096;20.082;2023-04-28T12:47:08;17.39;32.09
67641;SHT31;54434;50.096;20.082;2023-04-28T12:49:46;17.39;32.91
67641;SHT31;54434;50.096;20.082;2023-04-28T12:52:24;17.40;33.08
67641;SHT31;54434;50.096;20.082;2023-04-28T12:55:04;17.33;31.57
67641;SHT31;54434;50.096;20.082;2023-04-28T12:57:43;17.24;32.38
67641;SHT31;54434;50.096;20.082;2023-04-28T13:00:22;17.25;32.88
67641;SHT31;54434;50.096;20.082;2023-04-28T13:02:59;17.23;32.21
67641;SHT31;54434;50.096;20.082;2023-04-28T13:05:36;17.17;31.87
67641;SHT31;54434;50.096;20.082;2023-04-28T13:08:12;17.15;31.80
67641;SHT31;54434;50.096;20.082;2023-04-28T13:10:49;17.13;31.59
67641;SHT31;54434;50.096;20.082;2023-04-28T13:13:26;17.17;32.60
67641;SHT31;54434;50.096;20.082;2023-04-28T13:16:02;17.23;33.54
67641;SHT31;54434;50.096;20.082;2023-04-28T13:18:40;17.28;33.01
67641;SHT31;54434;50.096;20.082;2023-04-28T13:21:17;17.26;32.04
67641;SHT31;54434;50.096;20.082;2023-04-28T13:23:53;17.21;32.43
67641;SHT31;54434;50.096;20.082;2023-04-28T13:26:30;17.20;32.72
67641;SHT31;54434;50.096;20.082;2023-04-28T13:29:07;17.23;33.11
67641;SHT31;54434;50.096;20.082;2023-04-28T13:31:45;17.26;32.74
67641;SHT31;54434;50.096;20.082;2023-04-28T13:34:22;17.25;31.91
67641;SHT31;54434;50.096;20.082;2023-04-28T13:36:59;17.16;30.64
67641;SHT31;54434;50.096;20.082;2023-04-28T13:39:35;17.04;30.72
67641;SHT31;54434;50.096;20.082;2023-04-28T13:42:12;16.97;31.10
67641;SHT31;54434;50.096;20.082;2023-04-28T13:44:49;16.92;31.27
67641;SHT31;54434;50.096;20.082;2023-04-28T13:47:25;16.87;31.20
67641;SHT31;54434;50.096;20.082;2023-04-28T13:50:04;16.81;30.85
67641;SHT31;54434;50.096;20.082;2023-04-28T13:52:42;16.73;30.88
67641;SHT31;54434;50.096;20.082;2023-04-28T13:55:19;16.65;31.13
67641;SHT31;54434;50.096;20.082;2023-04-28T13:57:58;16.62;31.95
67641;SHT31;54434;50.096;20.082;2023-04-28T14:00:36;16.64;32.33
67641;SHT31;54434;50.096;20.082;2023-04-28T14:03:12;16.61;32.10
67641;SHT31;54434;50.096;20.082;2023-04-28T14:05:51;16.54;32.57
67641;SHT31;54434;50.096;20.082;2023-04-28T14:08:32;16.47;32.54
67641;SHT31;54434;50.096;20.082;2023-04-28T14:11:07;16.49;33.15
67641;SHT31;54434;50.096;20.082;2023-04-28T14:13:44;16.53;33.29
67641;SHT31;54434;50.096;20.082;2023-04-28T14:16:21;16.53;32.70
67641;SHT31;54434;50.096;20.082;2023-04-28T14:18:58;16.52;32.88
67641;SHT31;54434;50.096;20.082;2023-04-28T14:21:35;16.51;33.20
67641;SHT31;54434;50.096;20.082;2023-04-28T14:24:12;16.49;33.00
67641;SHT31;54434;50.096;20.082;2023-04-28T14:26:49;16.47;33.17
67641;SHT31;54434;50.096;20.082;2023-04-28T14:29:26;16.48;32.88
67641;SHT31;54434;50.096;20.082;2023-04-28T14:32:03;16.46;32.89
67641;SHT31;54434;50.096;20.082;2023-04-28T14:34:40;16.41;33.13
67641;SHT31;54434;50.096;20.082;2023-04-28T14:37:18;16.38;33.31
67641;SHT31;54434;50.096;20.082;2023-04-28T14:39:54;16.31;33.46
67641;SHT31;54434;50.096;20.082;2023-04-28T14:42:33;16.25;33.68
67641;SHT31;54434;50.096;20.082;2023-04-28T14:45:12;16.22;33.25
67641;SHT31;54434;50.096;20.082;2023-04-28T14:47:51;16.24;34.11
67641;SHT31;54434;50.096;20.082;2023-04-28T14:50:28;16.26;33.62
67641;SHT31;54434;50.096;20.082;2023-04-28T14:53:05;16.26;34.02
67641;SHT31;54434;50.096;20.082;2023-04-28T14:55:42;16.24;33.95
67641;SHT31;54434;50.096;20.082;2023-04-28T14:58:19;16.25;33.84
67641;SHT31;54434;50.096;20.082;2023-04-28T15:00:56;16.26;33.45
67641;SHT31;54434;50.096;20.082;2023-04-28T15:03:33;16.33;33.69
67641;SHT31;54434;50.096;20.082;2023-04-28T15:06:10;16.34;33.07
67641;SHT31;54434;50.096;20.082;2023-04-28T15:08:47;16.34;33.43
67641;SHT31;54434;50.096;20.082;2023-04-28T15:11:24;16.35;33.50
67641;SHT31;54434;50.096;20.082;2023-04-28T15:14:01;16.36;33.33
67641;SHT31;54434;50.096;20.082;2023-04-28T15:16:38;16.35;33.18
67641;SHT31;54434;50.096;20.082;2023-04-28T15:19:15;16.33;33.08
67641;SHT31;54434;50.096;20.082;2023-04-28T15:21:52;16.31;33.33
67641;SHT31;54434;50.096;20.082;2023-04-28T15:24:30;16.26;33.22
67641;SHT31;54434;50.096;20.082;2023-04-28T15:27:07;16.23;33.31
67641;SHT31;54434;50.096;20.082;2023-04-28T15:29:44;16.22;33.93
67641;SHT31;54434;50.096;20.082;2023-04-28T15:32:21;16.22;33.83
67641;SHT31;54434;50.096;20.082;2023-04-28T15:35:01;16.22;33.85
67641;SHT31;54434;50.096;20.082;2023-04-28T15:37:43;16.18;33.86
67641;SHT31;54434;50.096;20.082;2023-04-28T15:40:22;16.16;33.88
67641;SHT31;54434;50.096;20.082;2023-04-28T15:42:59;16.14;34.21
67641;SHT31;54434;50.096;20.082;2023-04-28T15:45:35;16.14;34.81
67641;SHT31;54434;50.096;20.082;2023-04-28T15:48:15;16.11;34.23
67641;SHT31;54434;50.096;20.082;2023-04-28T15:50:54;16.12;34.46
67641;SHT31;54434;50.096;20.082;2023-04-28T15:53:30;16.09;34.37
67641;SHT31;54434;50.096;20.082;2023-04-28T15:56:07;16.06;34.91
67641;SHT31;54434;50.096;20.082;2023-04-28T15:58:44;16.03;35.09
67641;SHT31;54434;50.096;20.082;2023-04-28T16:01:22;16.00;35.58
67641;SHT31;54434;50.096;20.082;2023-04-28T16:04:00;15.95;35.59
67641;SHT31;54434;50.096;20.082;2023-04-28T16:06:40;15.89;36.24
67641;SHT31;54434;50.096;20.082;2023-04-28T16:09:16;15.83;36.23
67641;SHT31;54434;50.096;20.082;2023-04-28T16:11:52;15.73;35.83
67641;SHT31;54434;50.096;20.082;2023-04-28T16:14:30;15.64;35.71
67641;SHT31;54434;50.096;20.082;2023-04-28T16:17:07;15.58;36.32
67641;SHT31;54434;50.096;20.082;2023-04-28T16:19:45;15.52;36.21
67641;SHT31;54434;50.096;20.082;2023-04-28T16:22:21;15.43;36.28
67641;SHT31;54434;50.096;20.082;2023-04-28T16:24:58;15.39;36.38
67641;SHT31;54434;50.096;20.082;2023-04-28T16:27:36;15.35;36.47
67641;SHT31;54434;50.096;20.082;2023-04-28T16:30:14;15.27;36.44
67641;SHT31;54434;50.096;20.082;2023-04-28T16:32:52;15.20;36.77
67641;SHT31;54434;50.096;20.082;2023-04-28T16:35:29;15.14;36.99
67641;SHT31;54434;50.096;20.082;2023-04-28T16:38:07;15.09;37.13